createdAt,value
2022-10-13T00:01:50.631Z,8.21
2022-10-13T00:04:18.610Z,8.23
2022-10-13T00:06:46.231Z,8.24
2022-10-13T00:09:13.935Z,8.26
2022-10-13T00:11:41.527Z,8.28
2022-10-13T00:14:09.062Z,8.30
2022-10-13T00:16:37.018Z,8.33
2022-10-13T00:19:04.600Z,8.34
2022-10-13T00:21:32.208Z,8.37
2022-10-13T00:24:01.180Z,8.42
2022-10-13T00:26:28.727Z,8.46
2022-10-13T00:28:56.860Z,8.50
2022-10-13T00:31:24.603Z,8.52
2022-10-13T00:33:52.936Z,8.56
2022-10-13T00:36:20.754Z,8.58
2022-10-13T00:38:48.350Z,8.61
2022-10-13T00:41:16.315Z,8.65
2022-10-13T00:43:43.905Z,8.68
2022-10-13T00:46:11.517Z,8.72
2022-10-13T00:48:39.272Z,8.76
2022-10-13T00:51:06.815Z,8.80
2022-10-13T00:53:34.800Z,8.84
2022-10-13T00:56:02.401Z,8.86
2022-10-13T00:58:31.737Z,8.91
2022-10-13T01:00:59.607Z,8.94
2022-10-13T01:03:27.220Z,8.95
2022-10-13T01:05:55.214Z,8.98
2022-10-13T01:08:22.842Z,9.00
2022-10-13T01:10:50.380Z,9.04
2022-10-13T01:13:17.961Z,9.05
2022-10-13T01:15:45.597Z,9.08
2022-10-13T01:18:13.542Z,9.08
2022-10-13T01:20:41.121Z,9.08
2022-10-13T01:23:08.739Z,9.07
2022-10-13T01:25:36.501Z,9.07
2022-10-13T01:28:04.530Z,9.08
2022-10-13T01:30:32.528Z,9.07
2022-10-13T01:33:00.112Z,9.07
2022-10-13T01:35:27.702Z,9.07
2022-10-13T01:37:55.499Z,9.05
2022-10-13T01:40:23.632Z,9.06
2022-10-13T01:42:51.621Z,9.07
2022-10-13T01:45:19.228Z,9.15
2022-10-13T01:47:46.802Z,9.30
2022-10-13T01:50:14.357Z,9.43
2022-10-13T01:52:42.006Z,9.46
2022-10-13T01:55:09.942Z,9.44
2022-10-13T01:57:37.483Z,9.39
2022-10-13T02:00:05.357Z,9.33
2022-10-13T02:02:33.090Z,9.27
2022-10-13T02:05:00.672Z,9.22
2022-10-13T02:07:28.672Z,9.19
2022-10-13T02:09:56.397Z,9.19
2022-10-13T02:12:24.500Z,9.16
2022-10-13T02:14:52.113Z,9.14
2022-10-13T02:17:19.667Z,9.13
2022-10-13T02:19:47.615Z,9.09
2022-10-13T02:22:15.258Z,9.09
2022-10-13T02:24:42.848Z,9.08
2022-10-13T02:27:10.421Z,9.07
2022-10-13T02:29:38.019Z,9.07
2022-10-13T02:32:05.950Z,9.08
2022-10-13T02:34:33.858Z,9.08
2022-10-13T02:37:01.485Z,9.11
2022-10-13T02:39:29.229Z,9.11
2022-10-13T02:41:56.808Z,9.13
2022-10-13T02:44:25.351Z,9.14
2022-10-13T02:46:52.904Z,9.16
2022-10-13T02:49:20.457Z,9.15
2022-10-13T02:51:48.104Z,9.18
2022-10-13T02:54:15.674Z,9.29
2022-10-13T02:56:43.985Z,9.45
2022-10-13T02:59:12.200Z,9.62
2022-10-13T03:01:41.559Z,9.78
2022-10-13T03:04:09.305Z,9.95
2022-10-13T03:06:36.912Z,10.13
2022-10-13T03:09:04.462Z,10.33
2022-10-13T03:11:32.028Z,10.48
2022-10-13T03:13:59.728Z,10.61
2022-10-13T03:16:27.486Z,10.70
2022-10-13T03:18:55.033Z,10.79
2022-10-13T03:21:22.964Z,10.86
2022-10-13T03:23:50.526Z,10.93
2022-10-13T03:26:18.126Z,10.98
2022-10-13T03:28:45.969Z,11.05
2022-10-13T03:31:13.948Z,11.10
2022-10-13T03:33:41.889Z,11.16
2022-10-13T03:36:09.467Z,11.22
2022-10-13T03:38:37.095Z,11.30
2022-10-13T03:41:04.720Z,11.37
2022-10-13T03:43:32.277Z,11.43
2022-10-13T03:46:00.221Z,11.48
2022-10-13T03:48:27.735Z,11.53
2022-10-13T03:50:55.780Z,11.58
2022-10-13T03:53:24.285Z,11.61
2022-10-13T03:55:52.012Z,11.65
2022-10-13T03:58:19.968Z,11.67
2022-10-13T04:00:47.692Z,11.69
2022-10-13T04:03:15.606Z,11.71
2022-10-13T04:05:43.364Z,11.74
2022-10-13T04:08:11.655Z,11.76
2022-10-13T04:10:39.633Z,11.79
2022-10-13T04:13:07.255Z,11.79
2022-10-13T04:15:34.849Z,11.80
2022-10-13T04:18:02.610Z,11.81
2022-10-13T04:20:30.231Z,11.82
2022-10-13T04:22:58.166Z,11.85
2022-10-13T04:25:26.231Z,11.87
2022-10-13T04:27:53.787Z,11.90
2022-10-13T04:30:21.528Z,11.89
2022-10-13T04:32:49.057Z,11.91
2022-10-13T04:35:16.668Z,11.90
2022-10-13T04:37:45.220Z,11.92
2022-10-13T04:40:12.906Z,11.95
2022-10-13T04:42:40.761Z,11.96
2022-10-13T04:45:08.273Z,11.97
2022-10-13T04:47:37.256Z,11.99
2022-10-13T04:50:04.853Z,12.01
2022-10-13T04:52:32.618Z,12.01
2022-10-13T04:55:00.178Z,12.02
2022-10-13T04:57:27.786Z,12.01
2022-10-13T04:59:55.740Z,12.00
2022-10-13T05:02:23.348Z,11.97
2022-10-13T05:04:50.953Z,11.93
2022-10-13T05:07:18.932Z,11.90
2022-10-13T05:09:47.110Z,11.87
2022-10-13T05:12:14.707Z,11.82
2022-10-13T05:14:42.270Z,11.74
2022-10-13T05:17:09.811Z,11.72
2022-10-13T05:19:37.424Z,11.75
2022-10-13T05:22:05.275Z,11.80
2022-10-13T05:24:37.020Z,11.84
2022-10-13T05:27:04.587Z,11.88
2022-10-13T05:29:32.183Z,11.90
2022-10-13T05:32:01.030Z,11.92
2022-10-13T05:34:28.620Z,11.96
2022-10-13T05:36:56.603Z,11.99
2022-10-13T05:39:24.205Z,12.02
2022-10-13T05:41:51.846Z,12.05
2022-10-13T05:44:19.705Z,12.07
2022-10-13T05:46:47.298Z,12.08
2022-10-13T05:49:15.316Z,12.09
2022-10-13T05:51:42.927Z,12.11
2022-10-13T05:54:10.984Z,12.13
2022-10-13T05:56:38.599Z,12.13
2022-10-13T05:59:06.241Z,12.16
2022-10-13T06:01:34.282Z,12.18
2022-10-13T06:04:02.085Z,12.18
2022-10-13T06:06:31.583Z,12.18
2022-10-13T06:08:59.469Z,12.18
2022-10-13T06:11:27.115Z,12.20
2022-10-13T06:13:55.107Z,12.23
2022-10-13T06:16:22.791Z,12.24
2022-10-13T06:18:50.445Z,12.27
2022-10-13T06:21:18.066Z,12.28
2022-10-13T06:23:45.743Z,12.30
2022-10-13T06:26:13.783Z,12.31
2022-10-13T06:28:43.327Z,12.32
2022-10-13T06:31:12.846Z,12.35
2022-10-13T06:33:40.961Z,12.36
2022-10-13T06:36:09.099Z,12.38
2022-10-13T06:38:37.066Z,12.40
2022-10-13T06:41:04.699Z,12.40
2022-10-13T06:43:39.603Z,12.43
2022-10-13T06:46:07.868Z,12.42
2022-10-13T06:48:35.543Z,12.44
2022-10-13T06:51:03.789Z,12.43
2022-10-13T06:53:31.489Z,12.42
2022-10-13T06:55:59.134Z,12.44
2022-10-13T06:58:28.776Z,12.45
2022-10-13T07:00:56.753Z,12.47
2022-10-13T07:03:25.899Z,12.49
2022-10-13T07:05:53.860Z,12.52
2022-10-13T07:08:21.709Z,12.52
2022-10-13T07:10:49.614Z,12.56
2022-10-13T07:13:17.394Z,12.60
2022-10-13T07:15:45.492Z,12.65
2022-10-13T07:18:13.298Z,12.71
2022-10-13T07:20:41.358Z,12.78
2022-10-13T07:23:09.634Z,12.83
2022-10-13T07:25:37.327Z,12.88
2022-10-13T07:28:05.085Z,12.93
2022-10-13T07:30:32.800Z,12.97
2022-10-13T07:33:00.782Z,13.03
2022-10-13T07:35:30.871Z,13.10
2022-10-13T07:37:59.048Z,13.16
2022-10-13T07:40:27.679Z,13.21
2022-10-13T07:42:55.387Z,13.26
2022-10-13T07:45:23.224Z,13.30
2022-10-13T07:47:51.189Z,13.35
2022-10-13T07:50:18.964Z,13.40
2022-10-13T07:52:46.749Z,13.48
2022-10-13T07:55:14.398Z,13.56
2022-10-13T07:57:42.163Z,13.66
2022-10-13T08:00:10.679Z,13.83
2022-10-13T08:02:38.908Z,13.99
2022-10-13T08:05:06.925Z,14.17
2022-10-13T08:07:34.734Z,14.32
2022-10-13T08:10:02.745Z,14.50
2022-10-13T08:12:30.632Z,14.71
2022-10-13T08:15:00.496Z,14.92
2022-10-13T08:17:31.531Z,15.11
2022-10-13T08:19:59.516Z,15.27
2022-10-13T08:22:28.564Z,15.39
2022-10-13T08:24:57.617Z,15.46
2022-10-13T08:27:32.810Z,15.50
2022-10-13T08:30:13.669Z,15.57
2022-10-13T08:32:41.967Z,15.60
2022-10-13T08:35:09.977Z,15.61
2022-10-13T08:37:37.915Z,15.60
2022-10-13T08:40:05.736Z,15.60
2022-10-13T08:42:33.506Z,15.62
2022-10-13T08:47:52.841Z,15.68
2022-10-13T08:50:20.586Z,15.70
2022-10-13T08:52:48.693Z,15.76
2022-10-13T08:55:16.452Z,15.87
2022-10-13T08:57:44.838Z,15.99
2022-10-13T09:00:12.763Z,16.15
2022-10-13T09:02:40.623Z,16.35
2022-10-13T09:05:08.943Z,16.50
2022-10-13T09:07:36.748Z,16.63
2022-10-13T09:10:04.550Z,16.70
2022-10-13T09:12:34.150Z,16.82
2022-10-13T09:15:03.044Z,16.97
2022-10-13T09:17:31.130Z,17.11
2022-10-13T09:19:59.128Z,17.24
2022-10-13T09:22:26.877Z,17.35
2022-10-13T09:24:54.741Z,17.44
2022-10-13T09:27:23.006Z,17.47
2022-10-13T09:29:51.160Z,17.57
2022-10-13T09:32:19.509Z,17.72
2022-10-13T09:34:47.565Z,18.00
2022-10-13T09:37:16.063Z,18.21
2022-10-13T09:39:43.871Z,18.33
2022-10-13T09:42:12.066Z,18.35
2022-10-13T09:44:39.852Z,18.27
2022-10-13T09:47:07.944Z,18.20
2022-10-13T09:49:36.361Z,18.10
2022-10-13T09:52:04.141Z,18.01
2022-10-13T09:54:32.145Z,18.15
2022-10-13T09:56:59.949Z,18.29
2022-10-13T09:59:27.764Z,18.29
2022-10-13T10:01:55.790Z,18.28
2022-10-13T10:04:23.761Z,18.24
2022-10-13T10:06:52.484Z,18.15
2022-10-13T10:09:20.285Z,18.09
2022-10-13T10:11:48.404Z,17.99
2022-10-13T10:14:16.530Z,17.87
2022-10-13T10:16:44.462Z,17.82
2022-10-13T10:19:12.591Z,17.79
2022-10-13T10:21:40.427Z,17.83
2022-10-13T10:24:08.340Z,17.98
2022-10-13T10:26:36.791Z,18.26
2022-10-13T10:29:04.697Z,18.49
2022-10-13T10:31:32.919Z,18.57
2022-10-13T10:34:01.184Z,18.65
2022-10-13T10:36:29.044Z,18.69
2022-10-13T10:38:57.208Z,19.01
2022-10-13T10:41:25.884Z,19.50
2022-10-13T10:43:54.063Z,19.83
2022-10-13T10:46:22.094Z,19.88
2022-10-13T10:48:50.735Z,19.82
2022-10-13T10:51:18.990Z,19.69
2022-10-13T10:53:46.816Z,19.60
2022-10-13T10:56:15.449Z,19.51
2022-10-13T10:58:43.324Z,19.48
2022-10-13T11:01:11.260Z,19.49
2022-10-13T11:03:39.518Z,19.53
2022-10-13T11:06:07.281Z,19.53
2022-10-13T11:08:35.481Z,19.47
2022-10-13T11:11:03.308Z,19.52
2022-10-13T11:13:31.040Z,19.63
2022-10-13T11:15:58.988Z,19.66
2022-10-13T11:18:26.801Z,19.81
2022-10-13T11:20:55.037Z,19.88
2022-10-13T11:23:22.883Z,20.05
2022-10-13T11:25:50.721Z,20.26
2022-10-13T11:28:18.821Z,20.34
2022-10-13T11:30:47.606Z,20.18
2022-10-13T11:33:24.898Z,20.03
2022-10-13T11:35:52.852Z,19.95
2022-10-13T11:38:20.844Z,19.88
2022-10-13T11:40:48.781Z,19.76
2022-10-13T11:43:16.467Z,19.76
2022-10-13T11:45:44.636Z,19.84
2022-10-13T11:48:12.467Z,19.80
2022-10-13T11:50:40.693Z,20.10
2022-10-13T11:53:08.707Z,20.70
2022-10-13T11:55:36.486Z,20.92
2022-10-13T11:58:04.660Z,20.74
2022-10-13T12:00:32.816Z,20.51
2022-10-13T12:03:00.975Z,20.28
2022-10-13T12:05:28.940Z,20.50
2022-10-13T12:07:56.893Z,20.48
2022-10-13T12:10:25.132Z,20.58
2022-10-13T12:12:53.085Z,20.50
2022-10-13T12:15:21.025Z,20.54
2022-10-13T12:17:48.988Z,20.53
2022-10-13T12:20:16.900Z,20.61
2022-10-13T12:22:45.761Z,20.66
2022-10-13T12:25:13.510Z,20.58
2022-10-13T12:27:41.335Z,20.35
2022-10-13T12:30:09.122Z,20.07
2022-10-13T12:32:37.110Z,19.84
2022-10-13T12:35:05.482Z,19.63
2022-10-13T12:37:33.635Z,19.46
2022-10-13T12:40:01.804Z,19.28
2022-10-13T12:42:29.710Z,19.12
2022-10-13T12:44:58.047Z,18.99
2022-10-13T12:47:26.175Z,18.91
2022-10-13T12:49:53.966Z,18.83
2022-10-13T12:52:22.934Z,18.74
2022-10-13T12:54:50.829Z,18.66
2022-10-13T12:57:18.651Z,18.56
2022-10-13T12:59:47.006Z,18.44
2022-10-13T13:02:15.207Z,18.28
2022-10-13T13:04:43.446Z,18.16
2022-10-13T13:07:11.615Z,18.06
2022-10-13T13:09:41.270Z,17.90
2022-10-13T13:12:09.953Z,17.72
2022-10-13T13:14:37.924Z,17.55
2022-10-13T13:17:05.643Z,17.42
2022-10-13T13:19:33.936Z,17.29
2022-10-13T13:22:01.876Z,17.11
2022-10-13T13:24:39.927Z,16.93
2022-10-13T13:27:08.527Z,16.79
2022-10-13T13:29:36.236Z,16.71
2022-10-13T13:32:03.991Z,16.65
2022-10-13T13:34:32.463Z,16.59
2022-10-13T13:37:00.252Z,16.55
2022-10-13T13:39:28.135Z,16.51
2022-10-13T13:41:55.950Z,16.43
2022-10-13T13:44:23.746Z,16.33
2022-10-13T13:46:51.595Z,16.24
2022-10-13T13:49:19.407Z,16.14
2022-10-13T13:51:47.337Z,16.00
2022-10-13T13:54:15.151Z,15.87
2022-10-13T13:56:43.023Z,15.75
2022-10-13T13:59:11.553Z,15.69
2022-10-13T14:01:39.550Z,15.60
2022-10-13T14:04:07.515Z,15.53
2022-10-13T14:06:35.321Z,15.45
2022-10-13T14:09:03.533Z,15.39
2022-10-13T14:11:31.799Z,15.34
2022-10-13T14:14:02.264Z,15.29
2022-10-13T14:16:30.542Z,15.23
2022-10-13T14:18:58.475Z,15.19
2022-10-13T14:21:26.307Z,15.17
2022-10-13T14:23:54.637Z,15.14
2022-10-13T14:26:24.204Z,15.11
2022-10-13T14:28:52.305Z,15.10
2022-10-13T14:31:20.139Z,15.10
2022-10-13T14:33:53.374Z,15.11
2022-10-13T14:36:22.403Z,15.11
2022-10-13T14:38:51.553Z,15.16
2022-10-13T14:41:21.267Z,15.20
2022-10-13T14:43:49.233Z,15.27
2022-10-13T14:46:17.258Z,15.36
2022-10-13T14:48:45.778Z,15.42
2022-10-13T14:51:13.605Z,15.49
2022-10-13T14:53:41.539Z,15.52
2022-10-13T14:56:09.326Z,15.57
2022-10-13T14:58:37.139Z,15.58
2022-10-13T15:01:05.488Z,15.58
2022-10-13T15:03:33.260Z,15.57
2022-10-13T15:06:01.367Z,15.54
2022-10-13T15:08:29.106Z,15.49
2022-10-13T15:10:56.905Z,15.45
2022-10-13T15:13:25.391Z,15.41
2022-10-13T15:15:53.228Z,15.37
2022-10-13T15:18:22.886Z,15.31
2022-10-13T15:20:53.693Z,15.26
2022-10-13T15:23:21.685Z,15.22
2022-10-13T15:25:50.199Z,15.21
2022-10-13T15:28:18.118Z,15.19
2022-10-13T15:30:46.238Z,15.17
2022-10-13T15:33:14.117Z,15.17
2022-10-13T15:35:42.525Z,15.15
2022-10-13T15:38:10.669Z,15.13
2022-10-13T15:40:38.683Z,15.12
2022-10-13T15:43:06.849Z,15.10
2022-10-13T15:45:34.644Z,15.08
2022-10-13T15:48:02.614Z,15.06
2022-10-13T15:50:30.716Z,15.06
2022-10-13T15:52:58.673Z,15.04
2022-10-13T15:55:26.845Z,15.01
2022-10-13T15:57:55.034Z,14.98
2022-10-13T16:00:23.029Z,14.95
2022-10-13T16:02:51.385Z,14.93
2022-10-13T16:05:19.392Z,14.90
2022-10-13T16:07:47.289Z,14.87
2022-10-13T16:10:15.001Z,14.83
2022-10-13T16:12:48.380Z,14.81
2022-10-13T16:15:17.934Z,14.79
2022-10-13T16:17:46.622Z,14.77
2022-10-13T16:20:14.716Z,14.75
2022-10-13T16:22:42.589Z,14.74
2022-10-13T16:25:11.270Z,14.73
2022-10-13T16:27:44.009Z,14.72
2022-10-13T16:30:12.472Z,14.70
2022-10-13T16:32:40.749Z,14.68
2022-10-13T16:35:08.584Z,14.65
2022-10-13T16:37:36.604Z,14.64
2022-10-13T16:40:04.973Z,14.61
2022-10-13T16:42:32.877Z,14.59
2022-10-13T16:45:00.894Z,14.57
2022-10-13T16:47:28.890Z,14.54
2022-10-13T16:49:56.640Z,14.53
2022-10-13T16:52:25.003Z,14.50
2022-10-13T16:54:52.820Z,14.49
2022-10-13T16:57:21.231Z,14.47
2022-10-13T16:59:49.360Z,14.46
2022-10-13T17:02:17.620Z,14.45
2022-10-13T17:04:46.058Z,14.44
2022-10-13T17:07:13.995Z,14.43
2022-10-13T17:09:42.027Z,14.42
2022-10-13T17:12:09.969Z,14.41
2022-10-13T17:14:37.772Z,14.40
2022-10-13T17:17:06.447Z,14.38
2022-10-13T17:19:34.381Z,14.39
2022-10-13T17:22:02.454Z,14.39
2022-10-13T17:24:31.187Z,14.39
2022-10-13T17:26:58.999Z,14.39
2022-10-13T17:29:27.442Z,14.40
2022-10-13T17:31:55.275Z,14.39
2022-10-13T17:34:23.455Z,14.38
2022-10-13T17:36:51.367Z,14.38
2022-10-13T17:39:19.448Z,14.39
2022-10-13T17:41:47.865Z,14.39
2022-10-13T17:44:20.405Z,14.40
2022-10-13T17:46:48.415Z,14.40
2022-10-13T17:49:16.338Z,14.39
2022-10-13T17:51:44.312Z,14.40
2022-10-13T17:54:16.002Z,14.40
2022-10-13T17:56:44.286Z,14.40
2022-10-13T17:59:12.677Z,14.40
2022-10-13T18:01:42.286Z,14.42
2022-10-13T18:04:10.429Z,14.43
2022-10-13T18:06:40.679Z,14.44
2022-10-13T18:09:08.579Z,14.44
2022-10-13T18:11:36.811Z,14.44
2022-10-13T18:14:04.814Z,14.45
2022-10-13T18:16:32.721Z,14.46
2022-10-13T18:19:00.808Z,14.46
2022-10-13T18:21:29.559Z,14.47
2022-10-13T18:23:57.668Z,14.48
2022-10-13T18:26:25.411Z,14.47
2022-10-13T18:28:53.837Z,14.47
2022-10-13T18:31:21.801Z,14.48
2022-10-13T18:33:49.558Z,14.48
2022-10-13T18:36:20.064Z,14.46
2022-10-13T18:38:47.887Z,14.46
2022-10-13T18:41:15.897Z,14.46
2022-10-13T18:43:44.222Z,14.46
2022-10-13T18:46:12.077Z,14.46
2022-10-13T18:48:40.949Z,14.46
2022-10-13T18:51:09.269Z,14.46
2022-10-13T18:53:37.439Z,14.46
2022-10-13T18:56:05.727Z,14.48
2022-10-13T18:58:33.471Z,14.47
2022-10-13T19:01:01.652Z,14.47
2022-10-13T19:03:29.589Z,14.46
2022-10-13T19:05:57.475Z,14.46
2022-10-13T19:08:25.906Z,14.46
2022-10-13T19:10:53.701Z,14.46
2022-10-13T19:13:23.163Z,14.44
2022-10-13T19:15:51.038Z,14.43
2022-10-13T19:18:18.890Z,14.41
2022-10-13T19:20:47.022Z,14.38
2022-10-13T19:23:14.953Z,14.35
2022-10-13T19:25:43.149Z,14.34
2022-10-13T19:28:10.974Z,14.31
2022-10-13T19:30:38.813Z,14.29
2022-10-13T19:33:06.637Z,14.26
2022-10-13T19:35:34.941Z,14.23
2022-10-13T19:38:03.101Z,14.21
2022-10-13T19:40:30.906Z,14.15
2022-10-13T19:42:58.955Z,14.11
2022-10-13T19:45:27.225Z,14.07
2022-10-13T19:47:55.088Z,14.03
2022-10-13T19:50:23.233Z,13.99
2022-10-13T19:52:51.152Z,13.95
2022-10-13T19:55:19.675Z,13.94
2022-10-13T19:57:48.105Z,13.93
2022-10-13T20:00:16.221Z,13.91
2022-10-13T20:02:44.385Z,13.90
2022-10-13T20:05:12.325Z,13.89
2022-10-13T20:07:40.174Z,13.90
2022-10-13T20:10:08.307Z,13.90
2022-10-13T20:12:36.135Z,13.91
2022-10-13T20:15:04.263Z,13.92
2022-10-13T20:17:32.166Z,13.94
2022-10-13T20:20:00.149Z,13.94
2022-10-13T20:22:28.034Z,13.93
2022-10-13T20:24:55.734Z,13.90
2022-10-13T20:27:23.836Z,13.87
2022-10-13T20:29:51.939Z,13.83
2022-10-13T20:32:19.789Z,13.81
2022-10-13T20:34:48.112Z,13.79
2022-10-13T20:37:15.965Z,13.76
2022-10-13T20:39:43.998Z,13.75
2022-10-13T20:42:12.071Z,13.75
2022-10-13T20:44:39.858Z,13.74
2022-10-13T20:47:08.595Z,13.75
2022-10-13T20:49:36.427Z,13.77
2022-10-13T20:52:04.721Z,13.78
2022-10-13T20:54:32.423Z,13.80
2022-10-13T20:57:00.397Z,13.80
2022-10-13T20:59:28.547Z,13.81
2022-10-13T21:01:56.608Z,13.82
2022-10-13T21:04:24.413Z,13.83
2022-10-13T21:06:52.064Z,13.82
2022-10-13T21:09:19.856Z,13.82
2022-10-13T21:11:48.263Z,13.83
2022-10-13T21:14:16.122Z,13.83
2022-10-13T21:16:43.874Z,13.84
2022-10-13T21:19:11.839Z,13.85
2022-10-13T21:21:39.638Z,13.84
2022-10-13T21:24:08.193Z,13.85
2022-10-13T21:26:36.104Z,13.84
2022-10-13T21:29:04.211Z,13.80
2022-10-13T21:31:32.063Z,13.72
2022-10-13T21:33:59.986Z,13.66
2022-10-13T21:36:28.235Z,13.59
2022-10-13T21:38:56.031Z,13.56
2022-10-13T21:41:23.874Z,13.54
2022-10-13T21:43:51.697Z,13.52
2022-10-13T21:46:19.522Z,13.53
2022-10-13T21:48:47.582Z,13.54
2022-10-13T21:51:15.306Z,13.54
2022-10-13T21:53:43.239Z,13.55
2022-10-13T21:56:11.734Z,13.54
2022-10-13T21:58:39.505Z,13.54
2022-10-13T22:01:07.635Z,13.55
2022-10-13T22:03:35.495Z,13.55
2022-10-13T22:06:04.584Z,13.56
2022-10-13T22:08:38.294Z,13.55
2022-10-13T22:11:06.554Z,13.55
2022-10-13T22:13:34.574Z,13.54
2022-10-13T22:16:02.331Z,13.53
2022-10-13T22:18:30.059Z,13.52
2022-10-13T22:20:57.860Z,13.51
2022-10-13T22:23:25.602Z,13.51
2022-10-13T22:25:54.795Z,13.53
2022-10-13T22:28:23.032Z,13.54
2022-10-13T22:30:50.972Z,13.54
2022-10-13T22:33:18.817Z,13.54
2022-10-13T22:35:47.012Z,13.55
2022-10-13T22:38:15.149Z,13.55
2022-10-13T22:40:43.083Z,13.56
2022-10-13T22:43:11.054Z,13.56
2022-10-13T22:45:38.711Z,13.57
2022-10-13T22:48:06.588Z,13.56
2022-10-13T22:50:35.069Z,13.57
2022-10-13T22:53:02.727Z,13.59
2022-10-13T22:55:30.430Z,13.60
2022-10-13T22:57:58.150Z,13.60
2022-10-13T23:00:25.870Z,13.62
2022-10-13T23:02:53.904Z,13.61
2022-10-13T23:05:21.500Z,13.62
2022-10-13T23:07:49.330Z,13.64
2022-10-13T23:10:17.038Z,13.64
2022-10-13T23:12:45.110Z,13.64
2022-10-13T23:15:13.180Z,13.64
2022-10-13T23:17:40.930Z,13.64
2022-10-13T23:20:08.965Z,13.65
2022-10-13T23:22:36.570Z,13.65
2022-10-13T23:25:04.197Z,13.65
2022-10-13T23:27:31.815Z,13.66
2022-10-13T23:29:59.472Z,13.66
2022-10-13T23:32:27.102Z,13.67
2022-10-13T23:34:55.072Z,13.67
2022-10-13T23:37:23.054Z,13.67
2022-10-13T23:39:51.295Z,13.68
2022-10-13T23:42:18.859Z,13.68
2022-10-13T23:44:46.530Z,13.68
2022-10-13T23:47:14.183Z,13.69
2022-10-13T23:49:41.805Z,13.70
2022-10-13T23:52:11.025Z,13.70
2022-10-13T23:54:38.902Z,13.72
2022-10-13T23:57:08.257Z,13.73
2022-10-13T23:59:35.853Z,13.71
